AAL731 KJFK-EGLL
Flight info
| Callsign | AAL731 |
|---|---|
| Flight time | N/A |
| Altitude | 39000 |
| Route | MERIT DCT HFD DCT PUT DCT WITCH DCT ALLEX N535B UMESI/M084F400 DCT 5130N05000W 5330N04000W 5430N03000W 5430N02000W DCT NEBIN DCT OLGON/N0485F410 DCT ENJEX DCT AVZAC DCT INFEC DCT JETZI DCT AMFUL DCT ORZEB/N0413F230 P2 SIRIC |
| Aircraft | B772/H-SDE2E3FGHIJ5LORVWXY/LB1D1 |
Departure
| Time | 2026-05-08 13:45 |
|---|---|
| Airport | John F. Kennedy International Airport (KJFK) |
Arrival
| Time | N/A |
|---|---|
| Airport | London Heathrow Airport (EGLL) |
| Time | Latitude | Longitude | Altitude | Speed | Heading |
|---|---|---|---|---|---|
| 2026-05-08 13:17 | 40.64686 | -73.79241 | 23 ft | 0 kts | 345° |
| 2026-05-08 13:34 | 40.64675 | -73.79237 | 22 ft | 2 kts | 345° |
| 2026-05-08 13:34 | 40.64651 | -73.79231 | 22 ft | 4 kts | 10° |
| 2026-05-08 13:34 | 40.64631 | -73.79244 | 21 ft | 4 kts | 20° |
| 2026-05-08 13:35 | 40.64618 | -73.79244 | 22 ft | 4 kts | 281° |
| 2026-05-08 13:35 | 40.64624 | -73.79217 | 23 ft | 4 kts | 240° |
| 2026-05-08 13:35 | 40.64632 | -73.79199 | 25 ft | 0 kts | 240° |
| 2026-05-08 13:37 | 40.64624 | -73.79217 | 23 ft | 4 kts | 240° |
| 2026-05-08 13:37 | 40.64609 | -73.79252 | 23 ft | 4 kts | 243° |
| 2026-05-08 13:38 | 40.64602 | -73.79315 | 20 ft | 11 kts | 277° |
| 2026-05-08 13:38 | 40.64611 | -73.79436 | 20 ft | 14 kts | 266° |
| 2026-05-08 13:38 | 40.64590 | -73.79562 | 20 ft | 14 kts | 242° |
| 2026-05-08 13:38 | 40.64501 | -73.79597 | 20 ft | 14 kts | 179° |
| 2026-05-08 13:39 | 40.64403 | -73.79594 | 20 ft | 14 kts | 177° |
| 2026-05-08 13:39 | 40.64304 | -73.79597 | 20 ft | 14 kts | 186° |
| 2026-05-08 13:39 | 40.64205 | -73.79607 | 20 ft | 14 kts | 184° |
| 2026-05-08 13:39 | 40.64105 | -73.79606 | 20 ft | 14 kts | 169° |
| 2026-05-08 13:40 | 40.64016 | -73.79550 | 21 ft | 14 kts | 141° |
| 2026-05-08 13:40 | 40.63956 | -73.79447 | 25 ft | 14 kts | 122° |
| 2026-05-08 13:40 | 40.63905 | -73.79337 | 21 ft | 14 kts | 121° |
| 2026-05-08 13:40 | 40.63854 | -73.79225 | 21 ft | 14 kts | 121° |
| 2026-05-08 13:41 | 40.63803 | -73.79113 | 23 ft | 14 kts | 121° |
| 2026-05-08 13:41 | 40.63752 | -73.79000 | 22 ft | 14 kts | 121° |
| 2026-05-08 13:41 | 40.63702 | -73.78888 | 26 ft | 14 kts | 121° |
| 2026-05-08 13:41 | 40.63651 | -73.78776 | 27 ft | 14 kts | 121° |
| 2026-05-08 13:42 | 40.63600 | -73.78665 | 25 ft | 14 kts | 121° |
| 2026-05-08 13:42 | 40.63544 | -73.78542 | 25 ft | 18 kts | 121° |
| 2026-05-08 13:42 | 40.63479 | -73.78397 | 25 ft | 18 kts | 120° |
| 2026-05-08 13:42 | 40.63415 | -73.78251 | 25 ft | 18 kts | 120° |
| 2026-05-08 13:43 | 40.63354 | -73.78114 | 25 ft | 15 kts | 119° |
| 2026-05-08 13:43 | 40.63326 | -73.78013 | 22 ft | 7 kts | 116° |
| 2026-05-08 13:43 | 40.63284 | -73.77995 | 23 ft | 7 kts | 189° |
| 2026-05-08 13:43 | 40.63237 | -73.78010 | 23 ft | 7 kts | 195° |
| 2026-05-08 13:44 | 40.63201 | -73.78045 | 22 ft | 7 kts | 247° |
| 2026-05-08 13:44 | 40.63263 | -73.78210 | 24 ft | 46 kts | 301° |
| 2026-05-08 13:44 | 40.63555 | -73.78848 | 30 ft | 114 kts | 301° |
| 2026-05-08 13:44 | 40.64066 | -73.79975 | 35 ft | 168 kts | 300° |
| 2026-05-08 13:45 | 40.64691 | -73.81340 | 579 ft | 174 kts | 301° |
| 2026-05-08 13:45 | 40.65345 | -73.82699 | 1301 ft | 179 kts | 302° |
| 2026-05-08 13:45 | 40.66224 | -73.83875 | 1766 ft | 193 kts | 335° |
| 2026-05-08 13:45 | 40.67612 | -73.84067 | 1863 ft | 212 kts | 17° |
| 2026-05-08 13:46 | 40.68860 | -73.82924 | 2017 ft | 230 kts | 49° |
| 2026-05-08 13:46 | 40.69910 | -73.81243 | 2389 ft | 246 kts | 50° |
| 2026-05-08 13:46 | 40.71046 | -73.79521 | 2884 ft | 256 kts | 47° |
| 2026-05-08 13:46 | 40.72268 | -73.77765 | 3509 ft | 263 kts | 46° |
| 2026-05-08 13:47 | 40.73533 | -73.75995 | 4183 ft | 266 kts | 46° |
| 2026-05-08 13:47 | 40.74614 | -73.74510 | 4793 ft | 268 kts | 46° |
| 2026-05-08 13:48 | 40.74747 | -73.74328 | 4866 ft | 268 kts | 46° |
| 2026-05-08 13:48 | 40.76057 | -73.72549 | 5579 ft | 271 kts | 45° |
| 2026-05-08 13:48 | 40.77386 | -73.70765 | 6263 ft | 273 kts | 45° |
| 2026-05-08 13:49 | 40.78733 | -73.68970 | 6926 ft | 276 kts | 45° |
| 2026-05-08 13:49 | 40.80093 | -73.67164 | 7562 ft | 279 kts | 45° |
| 2026-05-08 13:49 | 40.81451 | -73.65366 | 8180 ft | 281 kts | 45° |
| 2026-05-08 13:49 | 40.82844 | -73.63525 | 8802 ft | 284 kts | 45° |
| 2026-05-08 13:50 | 40.84249 | -73.61673 | 9412 ft | 287 kts | 45° |
| 2026-05-08 13:50 | 40.85670 | -73.59798 | 10009 ft | 289 kts | 45° |
| 2026-05-08 13:50 | 40.87119 | -73.57887 | 10392 ft | 302 kts | 45° |
| 2026-05-08 13:50 | 40.88648 | -73.55871 | 10551 ft | 324 kts | 45° |
| 2026-05-08 13:51 | 40.90306 | -73.53684 | 10743 ft | 347 kts | 45° |
| 2026-05-08 13:51 | 40.92015 | -73.51287 | 11097 ft | 365 kts | 47° |
| 2026-05-08 13:51 | 40.93724 | -73.48736 | 11771 ft | 375 kts | 49° |
| 2026-05-08 13:51 | 40.95450 | -73.46115 | 12631 ft | 381 kts | 49° |
| 2026-05-08 13:52 | 40.97200 | -73.43449 | 13597 ft | 385 kts | 49° |
| 2026-05-08 13:52 | 40.98949 | -73.40792 | 14502 ft | 389 kts | 49° |
| 2026-05-08 13:52 | 41.00739 | -73.38078 | 15394 ft | 395 kts | 49° |
| 2026-05-08 13:52 | 41.02564 | -73.35318 | 16266 ft | 400 kts | 49° |
| 2026-05-08 13:53 | 41.04411 | -73.32530 | 17121 ft | 405 kts | 49° |
| 2026-05-08 13:53 | 41.06285 | -73.29703 | 17962 ft | 411 kts | 49° |
| 2026-05-08 13:53 | 41.08184 | -73.26838 | 18799 ft | 416 kts | 49° |
| 2026-05-08 13:53 | 41.10107 | -73.23936 | 19618 ft | 421 kts | 49° |
| 2026-05-08 13:54 | 41.12046 | -73.21007 | 20410 ft | 426 kts | 49° |
| 2026-05-08 13:54 | 41.14012 | -73.18035 | 21178 ft | 431 kts | 49° |
| 2026-05-08 13:54 | 41.15999 | -73.15028 | 21936 ft | 435 kts | 49° |
| 2026-05-08 13:54 | 41.18004 | -73.11991 | 22652 ft | 440 kts | 49° |
| 2026-05-08 13:55 | 41.20002 | -73.08960 | 23312 ft | 444 kts | 49° |
| 2026-05-08 13:55 | 41.22050 | -73.05851 | 23937 ft | 449 kts | 49° |
| 2026-05-08 13:55 | 41.26199 | -72.99544 | 25147 ft | 457 kts | 49° |
| 2026-05-08 13:56 | 41.28299 | -72.96347 | 25687 ft | 461 kts | 49° |
| 2026-05-08 13:56 | 41.30417 | -72.93119 | 26228 ft | 465 kts | 49° |
| 2026-05-08 13:56 | 41.32550 | -72.89863 | 26732 ft | 468 kts | 49° |
| 2026-05-08 13:56 | 41.34699 | -72.86580 | 27240 ft | 472 kts | 49° |
| 2026-05-08 13:57 | 41.36795 | -72.83375 | 27679 ft | 475 kts | 49° |
| 2026-05-08 13:57 | 41.38978 | -72.80032 | 28111 ft | 479 kts | 49° |
| 2026-05-08 13:57 | 41.41171 | -72.76670 | 28512 ft | 482 kts | 49° |
| 2026-05-08 13:57 | 41.43343 | -72.73337 | 28898 ft | 485 kts | 49° |
| 2026-05-08 13:58 | 41.45564 | -72.69926 | 29272 ft | 488 kts | 49° |
| 2026-05-08 13:58 | 41.47793 | -72.66496 | 29582 ft | 491 kts | 49° |
| 2026-05-08 13:58 | 41.50043 | -72.63033 | 29513 ft | 496 kts | 49° |
| 2026-05-08 13:59 | 41.54523 | -72.56122 | 29470 ft | 489 kts | 49° |
| 2026-05-08 13:59 | 41.58967 | -72.49252 | 29488 ft | 490 kts | 49° |
| 2026-05-08 14:00 | 41.63436 | -72.42327 | 29483 ft | 491 kts | 49° |
| 2026-05-08 14:00 | 41.67879 | -72.35433 | 29483 ft | 491 kts | 49° |
| 2026-05-08 14:01 | 41.72345 | -72.28502 | 29485 ft | 490 kts | 50° |
| 2026-05-08 14:01 | 41.75902 | -72.20825 | 29487 ft | 490 kts | 67° |
| 2026-05-08 14:02 | 41.77577 | -72.11983 | 29480 ft | 491 kts | 85° |
| 2026-05-08 14:02 | 41.77393 | -72.04389 | 29485 ft | 491 kts | 99° |
| 2026-05-08 14:03 | 41.75309 | -71.95736 | 29485 ft | 490 kts | 117° |
| 2026-05-08 14:03 | 41.71372 | -71.88322 | 29482 ft | 489 kts | 134° |
| 2026-05-08 14:03 | 41.68832 | -71.85275 | 29093 ft | 491 kts | 142° |
| 2026-05-08 14:04 | 41.66054 | -71.82765 | 27992 ft | 471 kts | 151° |
| 2026-05-08 14:04 | 41.63145 | -71.80940 | 26789 ft | 451 kts | 160° |